createdAt,value
2018-02-19T00:07:36.346Z,83.4
2018-02-19T00:17:51.348Z,82.9
2018-02-19T00:28:06.903Z,81.6
2018-02-19T00:38:21.895Z,81.1
2018-02-19T00:48:36.760Z,80.5
2018-02-19T00:58:51.797Z,80.5
2018-02-19T01:09:05.451Z,80.7
2018-02-19T01:19:19.072Z,80.7
2018-02-19T01:29:34.079Z,80.9
2018-02-19T01:39:48.728Z,81.3
2018-02-19T01:50:02.648Z,81.8
2018-02-19T02:00:16.643Z,81.6
2018-02-19T02:10:31.811Z,81.7
2018-02-19T02:20:47.289Z,82.3
2018-02-19T02:31:01.934Z,81.7
2018-02-19T02:41:16.124Z,81.6
2018-02-19T02:51:30.800Z,81.7
2018-02-19T03:01:45.909Z,82
2018-02-19T03:12:00.040Z,81.7
2018-02-19T03:22:15.988Z,82.1
2018-02-19T03:32:30.193Z,81.7
2018-02-19T03:42:44.821Z,81.8
2018-02-19T03:52:59.185Z,82.3
2018-02-19T04:03:13.523Z,82.6
2018-02-19T04:13:28.359Z,82.5
2018-02-19T04:23:42.205Z,82.9
2018-02-19T04:33:55.860Z,83.2
2018-02-19T04:44:10.274Z,83.4
2018-02-19T04:54:25.901Z,83.8
2018-02-19T05:04:41.232Z,84.2
2018-02-19T05:14:56.199Z,84.3
2018-02-19T05:25:10.646Z,84.5
2018-02-19T05:35:24.526Z,83.7
2018-02-19T05:45:39.960Z,83.9
2018-02-19T05:55:53.717Z,83.3
2018-02-19T06:06:09.231Z,83.6
2018-02-19T06:16:23.896Z,83.7
2018-02-19T06:26:38.200Z,83.7
2018-02-19T06:36:53.271Z,83.5
2018-02-19T06:47:08.594Z,83.6
2018-02-19T06:57:22.323Z,83.2
2018-02-19T07:07:36.495Z,83.2
2018-02-19T07:17:51.468Z,83.1
2018-02-19T07:28:05.456Z,83.5
2018-02-19T07:38:20.577Z,83.3
2018-02-19T07:48:35.841Z,83.5
2018-02-19T07:58:51.241Z,83.3
2018-02-19T08:09:06.705Z,83.7
2018-02-19T08:19:20.588Z,83.3
2018-02-19T08:29:34.526Z,83.5
2018-02-19T08:39:48.491Z,83.7
2018-02-19T08:50:03.345Z,83.9
2018-02-19T09:00:18.018Z,84
2018-02-19T09:10:33.558Z,84
2018-02-19T09:20:47.562Z,83.7
2018-02-19T09:31:01.305Z,84.5
2018-02-19T09:41:15.979Z,83.5
2018-02-19T09:51:31.614Z,82.5
2018-02-19T10:01:46.922Z,82.4
2018-02-19T10:12:01.759Z,84.2
2018-02-19T10:22:15.896Z,85.1
2018-02-19T10:32:29.898Z,86.2
2018-02-19T10:52:59.305Z,86.8
2018-02-19T11:03:13.793Z,88.4
2018-02-19T11:13:28.469Z,88.6
2018-02-19T11:23:43.184Z,89.5
2018-02-19T11:33:57.138Z,89.4
2018-02-19T11:44:12.221Z,90
2018-02-19T11:54:26.394Z,90.4
2018-02-19T12:04:41.833Z,90.2
2018-02-19T12:14:56.961Z,89
2018-02-19T12:25:11.156Z,89.8
2018-02-19T12:35:25.295Z,90.8
2018-02-19T12:45:40.557Z,92.1
2018-02-19T12:55:54.329Z,90
2018-02-19T13:06:08.382Z,88.9
2018-02-19T13:16:23.515Z,89.3
2018-02-19T13:26:38.570Z,90
2018-02-19T13:36:52.681Z,90.3
2018-02-19T13:47:07.711Z,91
2018-02-19T14:28:05.053Z,94.6
2018-02-19T14:38:19.321Z,95.1
2018-02-19T14:48:33.787Z,95.3
2018-02-19T14:58:49.326Z,96.6
2018-02-19T15:09:04.630Z,97.4
2018-02-19T15:19:19.923Z,97.8
2018-02-19T15:29:34.974Z,98.6
2018-02-19T15:39:50.610Z,99.1
2018-02-19T15:50:05.125Z,99.6
2018-02-19T16:00:19.925Z,99.4
2018-02-19T16:10:34.067Z,100
2018-02-19T16:20:49.712Z,100
2018-02-19T16:31:02.954Z,100
2018-02-19T16:41:17.573Z,100
2018-02-19T16:51:32.593Z,100
2018-02-19T17:01:47.887Z,100
2018-02-19T17:12:02.889Z,100
2018-02-19T17:32:32.523Z,100
2018-02-19T17:42:47.053Z,100
2018-02-19T17:53:00.850Z,100
2018-02-19T18:03:14.714Z,100
2018-02-19T18:13:28.678Z,100
2018-02-19T18:23:43.089Z,100
2018-02-19T18:33:57.070Z,100
2018-02-19T18:44:11.203Z,100
2018-02-19T18:54:25.050Z,100
2018-02-19T19:04:40.143Z,100
2018-02-19T19:14:54.139Z,99.7
2018-02-19T19:25:09.489Z,98.8
2018-02-19T19:35:23.862Z,96.2
2018-02-19T19:45:38.707Z,94
2018-02-19T19:55:52.419Z,92.2
2018-02-19T20:06:06.085Z,90.4
2018-02-19T20:16:19.930Z,90.7
2018-02-19T20:26:34.164Z,90.8
2018-02-19T20:36:48.741Z,90
2018-02-19T20:47:03.662Z,89.6
2018-02-19T20:57:18.517Z,88
2018-02-19T21:07:32.164Z,87.7
2018-02-19T21:17:46.191Z,87.3
2018-02-19T21:38:15.868Z,83.6
2018-02-19T21:48:31.320Z,83.6
2018-02-19T21:58:46.873Z,82.6
2018-02-19T22:09:01.292Z,82.3
2018-02-19T22:19:15.857Z,81.3
2018-02-19T22:29:30.785Z,81.3
2018-02-19T22:39:44.633Z,79.9
2018-02-19T22:49:58.913Z,79.6
2018-02-19T23:00:13.361Z,79.2
2018-02-19T23:10:26.982Z,76.5
2018-02-19T23:20:42.430Z,73.4
2018-02-19T23:30:56.056Z,72.1
2018-02-19T23:41:11.420Z,71.2
2018-02-19T23:51:26.168Z,72.8
